Time;durP1;ratioP1;P1;durP2;ratioP2;P2;SDS_P1;SDS_P2;PMS_P1;PMS_P2;Temp;Humidity;BMP_temperature;BMP_pressure;BME280_temperature;BME280_humidity;BME280_pressure;Samples;Min_cycle;Max_cycle;Signal;HPM_P1;HPM_P2
2023/09/18 00:01:58;;;;;;;;;;;;;;;21.38;63.17;98949.44;10206236;28;972;-73
2023/09/18 00:06:54;;;;;;;;;;;;;;;21.38;63.22;98943.28;10205803;28;1891;-73
2023/09/18 00:11:51;;;;;;;;;;;;;;;21.36;63.26;98926.59;10205309;28;778;-73
2023/09/18 00:16:47;;;;;;;;;;;;;;;21.38;63.27;98922.94;10205068;28;794;-73
2023/09/18 00:21:43;;;;;;;;;;;;;;;21.36;63.24;98903.59;10205013;28;822;-73
2023/09/18 00:26:39;;;;;;;;;;;;;;;21.36;63.26;98900.94;10204761;28;1965;-73
2023/09/18 00:31:35;;;;;;;;;;;;;;;21.36;63.47;98886.84;10204697;28;878;-73
2023/09/18 00:36:31;;;;;;;;;;;;;;;21.36;63.49;98879.72;10205154;28;1281;-73
2023/09/18 00:41:27;;;;;;;;;;;;;;;21.35;63.19;98877.19;10204962;28;997;-73
2023/09/18 00:46:23;;;;;;;;;;;;;;;21.37;63.14;98869.97;10204351;28;1907;-73
2023/09/18 00:51:19;;;;;;;;;;;;;;;21.37;63.37;98854.06;10204757;28;790;-73
2023/09/18 00:56:14;;;;;;;;;;;;;;;21.36;63.18;98849.72;10203995;28;802;-73
2023/09/18 01:01:10;;;;;;;;;;;;;;;21.34;63.23;98843.69;10203959;28;873;-73
2023/09/18 01:06:06;;;;;;;;;;;;;;;21.35;63.24;98830.34;10204366;28;1894;-73
2023/09/18 01:11:03;;;;;;;;;;;;;;;21.35;63.26;98825.03;10203177;28;966;-73
2023/09/18 01:15:58;;;;;;;;;;;;;;;21.34;63.13;98822.47;10203696;28;799;-73
2023/09/18 01:20:54;;;;;;;;;;;;;;;21.33;63.31;98813.69;10203502;28;1003;-73
2023/09/18 01:25:50;;;;;;;;;;;;;;;21.34;63.14;98799.47;10203569;28;1894;-73
2023/09/18 01:30:47;;;;;;;;;;;;;;;21.35;63.29;98797.66;10207834;28;924;-73
2023/09/18 01:35:43;;;;;;;;;;;;;;;21.33;63.34;98799.59;10211982;28;839;-73
2023/09/18 01:40:38;;;;;;;;;;;;;;;21.33;63.14;98797.78;10210310;28;1306;-73
2023/09/18 01:45:34;;;;;;;;;;;;;;;21.34;63.16;98802.13;10210277;28;1972;-73
2023/09/18 01:50:30;;;;;;;;;;;;;;;21.34;63.33;98788.03;10211225;28;900;-73
2023/09/18 01:55:28;;;;;;;;;;;;;;;21.35;63.05;98787.06;10210425;28;889;-73
2023/09/18 02:00:24;;;;;;;;;;;;;;;21.34;63.08;98780.06;10210477;28;795;-73
2023/09/18 02:05:20;;;;;;;;;;;;;;;21.33;63.40;98783.69;10210012;28;1898;-73
2023/09/18 02:10:16;;;;;;;;;;;;;;;21.33;63.30;98773.94;10210103;28;886;-73
2023/09/18 02:15:12;;;;;;;;;;;;;;;21.34;63.37;98769.47;10210258;28;903;-73
2023/09/18 02:20:11;;;;;;;;;;;;;;;21.33;63.20;98759.84;10209711;28;798;-72
2023/09/18 02:25:07;;;;;;;;;;;;;;;21.34;63.30;98753.56;10209392;28;1979;-73
2023/09/18 02:30:03;;;;;;;;;;;;;;;21.34;63.07;98735.84;10209031;28;904;-73
2023/09/18 02:34:59;;;;;;;;;;;;;;;21.34;63.29;98719.94;10209522;28;787;-73
2023/09/18 02:39:55;;;;;;;;;;;;;;;21.33;62.95;98718.25;10208414;28;1358;-73
2023/09/18 02:44:51;;;;;;;;;;;;;;;21.33;63.09;98702.34;10208182;28;1892;-73
2023/09/18 02:49:46;;;;;;;;;;;;;;;21.33;63.27;98697.06;10209024;28;861;-73
2023/09/18 02:54:42;;;;;;;;;;;;;;;21.34;63.24;98679.34;10208273;28;952;-73
2023/09/18 02:59:38;;;;;;;;;;;;;;;21.33;63.07;98691.75;10208069;28;851;-73
2023/09/18 03:04:34;;;;;;;;;;;;;;;21.33;63.22;98685.63;10208475;28;1894;-73
2023/09/18 03:09:30;;;;;;;;;;;;;;;21.32;63.00;98682.09;10207942;28;767;-73
2023/09/18 03:14:26;;;;;;;;;;;;;;;21.33;63.09;98659.13;10207922;28;842;-73
2023/09/18 03:19:24;;;;;;;;;;;;;;;21.32;62.98;98641.50;10206711;28;1175;-73
2023/09/18 03:24:20;;;;;;;;;;;;;;;21.32;63.11;98629.09;10207905;28;851;-73
2023/09/18 03:29:16;;;;;;;;;;;;;;;21.33;63.21;98608.75;10207404;28;1953;-73
2023/09/18 03:34:11;;;;;;;;;;;;;;;21.31;63.11;98608.84;10206093;28;799;-73
2023/09/18 03:39:07;;;;;;;;;;;;;;;21.33;62.96;98611.41;10206692;28;1306;-73
2023/09/18 03:44:03;;;;;;;;;;;;;;;21.32;62.94;98612.34;10206338;28;793;-73
2023/09/18 03:48:59;;;;;;;;;;;;;;;21.33;63.10;98600.81;10206117;28;1910;-73
2023/09/18 03:53:55;;;;;;;;;;;;;;;21.31;62.90;98578.84;10206204;28;908;-73
2023/09/18 03:58:51;;;;;;;;;;;;;;;21.32;62.95;98575.25;10205816;28;870;-73
2023/09/18 04:03:47;;;;;;;;;;;;;;;21.31;63.04;98585.00;10205557;28;947;-73
2023/09/18 04:08:43;;;;;;;;;;;;;;;21.30;62.81;98570.06;10205344;28;1978;-73
2023/09/18 04:13:39;;;;;;;;;;;;;;;21.31;62.99;98555.00;10205296;28;803;-73
2023/09/18 04:18:35;;;;;;;;;;;;;;;21.31;62.79;98568.25;10205067;28;858;-73
2023/09/18 04:23:30;;;;;;;;;;;;;;;21.30;62.97;98564.78;10204954;28;775;-73
2023/09/18 04:28:26;;;;;;;;;;;;;;;21.29;62.76;98562.22;10204645;28;1898;-74
2023/09/18 04:33:22;;;;;;;;;;;;;;;21.28;62.67;98565.84;10205374;28;811;-75
2023/09/18 04:38:19;;;;;;;;;;;;;;;21.29;62.94;98559.56;10204332;28;1257;-75
2023/09/18 04:43:15;;;;;;;;;;;;;;;21.28;62.61;98560.56;10204319;28;1009;-75
2023/09/18 04:48:11;;;;;;;;;;;;;;;21.28;62.67;98558.72;10204029;28;1964;-75
2023/09/18 04:53:06;;;;;;;;;;;;;;;21.28;62.65;98558.72;10204120;28;853;-76
2023/09/18 04:58:03;;;;;;;;;;;;;;;21.28;62.64;98548.13;10204470;28;768;-75
2023/09/18 05:03:01;;;;;;;;;;;;;;;21.27;62.77;98551.72;10202856;28;983;-75
2023/09/18 05:07:57;;;;;;;;;;;;;;;21.28;62.60;98550.78;10203335;28;1940;-76
2023/09/18 05:12:58;;;;;;;;;;;;;;;21.27;62.78;98543.78;10204252;28;850;-73
2023/09/18 05:17:57;;;;;;;;;;;;;;;21.28;62.65;98526.94;10201301;28;1059;-72
2023/09/18 05:22:55;;;;;;;;;;;;;;;21.27;62.60;98530.53;10202898;28;1086;-73
2023/09/18 05:27:57;;;;;;;;;;;;;;;21.28;62.55;98536.69;10202758;28;1942;-73
2023/09/18 05:32:53;;;;;;;;;;;;;;;21.27;62.71;98566.78;10202922;28;890;-73
2023/09/18 05:37:49;;;;;;;;;;;;;;;21.26;62.85;98567.75;10202916;28;1332;-75
2023/09/18 05:42:45;;;;;;;;;;;;;;;21.24;62.69;98573.16;10203073;28;842;-77
2023/09/18 05:47:42;;;;;;;;;;;;;;;21.27;62.80;98586.19;10203437;28;1969;-73
2023/09/18 05:52:38;;;;;;;;;;;;;;;21.24;62.80;98600.50;10203167;28;870;-72
2023/09/18 05:57:34;;;;;;;;;;;;;;;21.27;62.74;98609.19;10202633;28;995;-73
2023/09/18 06:02:30;;;;;;;;;;;;;;;21.26;62.78;98612.81;10202819;28;821;-77
2023/09/18 06:07:25;;;;;;;;;;;;;;;21.24;62.76;98626.16;10203262;28;1957;-76
2023/09/18 06:12:21;;;;;;;;;;;;;;;21.25;62.68;98601.38;10200231;28;1030;-73
2023/09/18 06:17:17;;;;;;;;;;;;;;;21.24;62.60;98605.81;10206520;28;973;-73
2023/09/18 06:22:13;;;;;;;;;;;;;;;21.24;62.77;98608.47;10208711;28;891;-73
2023/09/18 06:27:11;;;;;;;;;;;;;;;21.25;62.86;98611.97;10208901;28;1894;-73
2023/09/18 06:32:06;;;;;;;;;;;;;;;21.24;62.73;98615.56;10208486;28;1002;-76
2023/09/18 06:37:04;;;;;;;;;;;;;;;21.22;62.82;98641.34;10208182;28;1154;-77
2023/09/18 06:42:00;;;;;;;;;;;;;;;21.21;62.89;98648.44;10208170;28;775;-74
2023/09/18 06:46:56;;;;;;;;;;;;;;;21.22;62.86;98662.53;10207680;28;1910;-75
2023/09/18 06:51:52;;;;;;;;;;;;;;;21.20;63.05;98651.22;10207951;28;803;-74
2023/09/18 06:56:48;;;;;;;;;;;;;;;21.17;63.17;98628.47;10207777;28;847;-73
2023/09/18 07:01:44;;;;;;;;;;;;;;;21.18;63.26;98655.78;10208163;28;965;-74
2023/09/18 07:06:40;;;;;;;;;;;;;;;21.16;63.13;98663.00;10207810;28;1898;-73
2023/09/18 07:11:37;;;;;;;;;;;;;;;21.15;63.16;98654.22;10207086;28;892;-74
2023/09/18 07:16:33;;;;;;;;;;;;;;;21.19;63.28;98673.38;10206926;28;1706;-75
2023/09/18 07:21:29;;;;;;;;;;;;;;;21.18;63.20;98677.84;10207303;28;840;-79
2023/09/18 07:26:25;;;;;;;;;;;;;;;21.17;63.36;98676.16;10206034;28;1898;-74
2023/09/18 07:31:21;;;;;;;;;;;;;;;21.16;63.40;98666.50;10188880;28;914;-73
2023/09/18 07:36:17;;;;;;;;;;;;;;;21.18;63.30;98677.00;10206160;28;806;-72
2023/09/18 07:41:15;;;;;;;;;;;;;;;21.16;63.53;98671.78;10205236;28;1362;-74
2023/09/18 07:46:11;;;;;;;;;;;;;;;21.16;63.71;98671.78;10206112;28;1915;-73
2023/09/18 07:51:07;;;;;;;;;;;;;;;21.15;63.44;98695.78;10205835;28;842;-71
2023/09/18 07:56:04;;;;;;;;;;;;;;;21.15;63.56;98688.66;10205587;28;838;-72
2023/09/18 08:01:00;;;;;;;;;;;;;;;21.16;63.42;98694.81;10205512;28;944;-73
2023/09/18 08:05:57;;;;;;;;;;;;;;;21.22;63.59;98686.38;10204852;28;1955;-72
2023/09/18 08:10:52;;;;;;;;;;;;;;;21.23;63.67;98702.19;10204887;28;1167;-71
2023/09/18 08:15:48;;;;;;;;;;;;;;;21.24;63.89;98725.06;10204561;28;840;-72
2023/09/18 08:20:44;;;;;;;;;;;;;;;21.24;63.99;98714.47;10204889;28;902;-73
2023/09/18 08:25:41;;;;;;;;;;;;;;;21.24;64.17;98727.72;10204406;28;1958;-72
2023/09/18 08:30:40;;;;;;;;;;;;;;;21.23;63.92;98718.09;10205449;28;966;-73
2023/09/18 08:35:36;;;;;;;;;;;;;;;21.24;64.02;98721.59;10203756;28;919;-73
2023/09/18 08:40:32;;;;;;;;;;;;;;;21.23;64.18;98720.75;10203846;28;1353;-73
2023/09/18 08:45:28;;;;;;;;;;;;;;;21.23;64.06;98718.09;10203603;28;1910;-72
2023/09/18 08:50:25;;;;;;;;;;;;;;;21.23;63.98;98725.19;10204161;28;773;-73
2023/09/18 08:55:21;;;;;;;;;;;;;;;21.26;63.98;98726.78;10203247;28;806;-73
2023/09/18 09:00:16;;;;;;;;;;;;;;;21.27;64.21;98733.75;10203959;28;877;-72
2023/09/18 09:05:12;;;;;;;;;;;;;;;21.28;64.16;98727.53;10202990;28;1894;-72
2023/09/18 09:10:08;;;;;;;;;;;;;;;21.26;64.02;98732.09;10203613;28;858;-72
2023/09/18 09:15:04;;;;;;;;;;;;;;;21.27;63.83;98725.81;10203014;28;856;-72
2023/09/18 09:20:00;;;;;;;;;;;;;;;21.26;64.21;98721.47;10203054;28;960;-72
2023/09/18 09:24:56;;;;;;;;;;;;;;;21.27;63.79;98718.69;10202599;28;1958;-72
2023/09/18 09:29:53;;;;;;;;;;;;;;;21.29;63.88;98710.66;10203589;28;992;-72
2023/09/18 09:34:49;;;;;;;;;;;;;;;21.31;63.76;98727.28;10202618;28;810;-72
2023/09/18 09:39:45;;;;;;;;;;;;;;;21.34;63.78;98724.41;10202076;28;1258;-71
2023/09/18 09:44:41;;;;;;;;;;;;;;;21.34;63.88;98727.06;10202966;28;831;-72
2023/09/18 09:49:37;;;;;;;;;;;;;;;21.35;63.60;98728.72;10203518;28;1922;-71
2023/09/18 09:54:39;;;;;;;;;;;;;;;21.36;63.55;98725.97;10210119;28;806;-74
2023/09/18 09:59:35;;;;;;;;;;;;;;;21.38;63.52;98729.41;10209722;28;922;-74
2023/09/18 10:04:31;;;;;;;;;;;;;;;21.37;63.72;98737.44;10210058;28;863;-74
2023/09/18 10:09:28;;;;;;;;;;;;;;;21.38;63.67;98729.41;10210047;28;1959;-76
2023/09/18 10:14:24;;;;;;;;;;;;;;;21.39;63.64;98728.44;10209147;28;1077;-74
2023/09/18 10:19:21;;;;;;;;;;;;;;;21.35;63.77;98737.56;10209230;28;802;-74
2023/09/18 10:24:18;;;;;;;;;;;;;;;21.34;63.69;98732.34;10208589;28;1213;-74
2023/09/18 10:29:14;;;;;;;;;;;;;;;21.33;63.76;98747.41;10208700;28;1957;-73
2023/09/18 10:34:10;;;;;;;;;;;;;;;21.34;63.74;98743.81;10208698;28;918;-74
2023/09/18 10:39:10;;;;;;;;;;;;;;;21.33;63.72;98747.41;10207893;28;1525;-73
2023/09/18 10:44:06;;;;;;;;;;;;;;;21.34;63.74;98758.88;10208131;28;1081;-74
2023/09/18 10:49:03;;;;;;;;;;;;;;;21.34;63.66;98746.44;10208111;28;1906;-73
2023/09/18 10:53:59;;;;;;;;;;;;;;;21.38;63.57;98741.81;10207831;28;907;-73
2023/09/18 10:58:54;;;;;;;;;;;;;;;21.38;63.58;98739.16;10207607;28;788;-74
2023/09/18 11:03:50;;;;;;;;;;;;;;;21.39;63.49;98722.28;10206146;28;938;-74
2023/09/18 11:08:46;;;;;;;;;;;;;;;21.40;63.30;98740.72;10207361;28;1953;-79
2023/09/18 11:13:42;;;;;;;;;;;;;;;21.32;63.88;98728.97;10207641;28;916;-76
2023/09/18 11:18:38;;;;;;;;;;;;;;;21.28;63.92;98738.97;10207206;28;881;-72
2023/09/18 11:23:34;;;;;;;;;;;;;;;21.28;63.55;98736.31;10206744;28;769;-73
2023/09/18 11:28:33;;;;;;;;;;;;;;;21.29;63.51;98745.09;10206376;28;1894;-74
2023/09/18 11:33:29;;;;;;;;;;;;;;;21.28;63.66;98732.81;10205800;28;933;-74
2023/09/18 11:38:24;;;;;;;;;;;;;;;21.29;63.65;98715.94;10205778;28;1154;-73
2023/09/18 11:43:25;;;;;;;;;;;;;;;21.28;63.67;98712.47;10206506;28;837;-73
2023/09/18 11:48:21;;;;;;;;;;;;;;;21.27;63.60;98705.44;10206218;28;1918;-74
2023/09/18 11:53:21;;;;;;;;;;;;;;;21.28;63.55;98714.28;10205996;28;866;-77
2023/09/18 11:58:19;;;;;;;;;;;;;;;21.28;63.54;98717.75;10205941;28;934;-73
2023/09/18 12:03:24;;;;;;;;;;;;;;;21.28;63.45;98715.09;10205822;28;811;-74
2023/09/18 12:08:20;;;;;;;;;;;;;;;21.38;63.06;98702.91;10205814;28;1961;-76
2023/09/18 12:13:16;;;;;;;;;;;;;;;21.44;63.05;98705.06;10205225;28;880;-76
2023/09/18 12:18:12;;;;;;;;;;;;;;;21.49;63.00;98706.56;10205821;28;857;-74
2023/09/18 12:23:08;;;;;;;;;;;;;;;21.47;63.20;98706.66;10204806;28;833;-80
2023/09/18 12:28:04;;;;;;;;;;;;;;;21.51;62.71;98708.13;10205446;28;1955;-80
2023/09/18 12:33:00;;;;;;;;;;;;;;;21.54;62.66;98702.59;10204775;28;1217;-80
2023/09/18 12:37:56;;;;;;;;;;;;;;;21.59;62.60;98695.13;10204821;28;1277;-81
2023/09/18 12:42:53;;;;;;;;;;;;;;;21.61;62.50;98693.22;10205647;28;819;-80
2023/09/18 12:47:49;;;;;;;;;;;;;;;21.65;62.47;98688.50;10204299;28;1969;-80
2023/09/18 12:52:45;;;;;;;;;;;;;;;21.72;62.11;98675.59;10204778;28;881;-80
2023/09/18 12:57:41;;;;;;;;;;;;;;;21.71;62.36;98656.22;10203730;28;1123;-81
2023/09/18 13:02:37;;;;;;;;;;;;;;;21.76;62.29;98655.84;10204130;28;833;-78
2023/09/18 13:07:36;;;;;;;;;;;;;;;21.85;61.88;98668.41;10203823;28;1982;-77
2023/09/18 13:12:32;;;;;;;;;;;;;;;21.84;62.11;98677.34;10203798;28;784;-78
2023/09/18 13:17:28;;;;;;;;;;;;;;;21.78;62.20;98667.22;10203134;28;846;-77
2023/09/18 13:22:24;;;;;;;;;;;;;;;21.71;62.19;98663.31;10204515;28;830;-77
2023/09/18 13:27:20;;;;;;;;;;;;;;;21.73;62.35;98659.59;10209016;28;1898;-77
2023/09/18 13:32:16;;;;;;;;;;;;;;;21.73;62.13;98670.19;10212137;28;850;-78
2023/09/18 13:37:13;;;;;;;;;;;;;;;21.72;62.37;98672.97;10211148;28;1142;-80
2023/09/18 13:42:09;;;;;;;;;;;;;;;21.85;61.67;98663.97;10211101;28;1167;-80
2023/09/18 13:47:05;;;;;;;;;;;;;;;22.01;61.58;98663.63;10211445;28;1967;-80
2023/09/18 13:52:01;;;;;;;;;;;;;;;22.12;61.10;98657.47;10211279;28;865;-76
2023/09/18 13:56:57;;;;;;;;;;;;;;;22.19;61.26;98661.38;10210909;28;758;-76
2023/09/18 14:01:53;;;;;;;;;;;;;;;22.08;61.28;98664.78;10210547;28;960;-76
2023/09/18 14:06:49;;;;;;;;;;;;;;;22.00;61.58;98661.91;10210200;28;2020;-71
2023/09/18 14:11:45;;;;;;;;;;;;;;;22.35;60.67;98653.03;10210617;28;932;-73
2023/09/18 14:16:41;;;;;;;;;;;;;;;22.04;61.66;98636.84;10209512;28;899;-75
2023/09/18 14:21:39;;;;;;;;;;;;;;;21.85;62.19;98631.25;10210320;28;786;-74
2023/09/18 14:26:40;;;;;;;;;;;;;;;21.77;62.35;98634.53;10209991;28;1950;-73
2023/09/18 14:31:36;;;;;;;;;;;;;;;21.83;62.12;98627.91;10209655;28;853;-74
2023/09/18 14:36:33;;;;;;;;;;;;;;;22.08;61.50;98625.00;10209442;28;1331;-74
2023/09/18 14:41:29;;;;;;;;;;;;;;;22.04;61.54;98617.41;10209228;28;767;-73
2023/09/18 14:46:25;;;;;;;;;;;;;;;21.94;61.74;98617.28;10208629;28;1914;-73
2023/09/18 14:51:21;;;;;;;;;;;;;;;21.99;61.73;98624.91;10208605;28;814;-74
2023/09/18 14:56:17;;;;;;;;;;;;;;;22.17;61.40;98615.47;10209831;28;919;-73
2023/09/18 15:01:13;;;;;;;;;;;;;;;22.50;60.04;98619.91;10209240;28;810;-74
2023/09/18 15:06:08;;;;;;;;;;;;;;;22.43;60.30;98626.69;10207882;28;1955;-73
2023/09/18 15:11:04;;;;;;;;;;;;;;;22.46;60.24;98621.13;10208561;28;908;-73
2023/09/18 15:16:00;;;;;;;;;;;;;;;22.58;60.14;98618.44;10207703;28;903;-75
2023/09/18 15:20:56;;;;;;;;;;;;;;;22.57;60.10;98603.50;10206767;28;853;-75
2023/09/18 15:25:55;;;;;;;;;;;;;;;22.64;59.76;98608.19;10207168;28;1894;-73
2023/09/18 15:30:52;;;;;;;;;;;;;;;22.73;59.49;98603.94;10206351;28;974;-74
2023/09/18 15:35:48;;;;;;;;;;;;;;;22.71;59.70;98605.84;10207393;28;816;-74
2023/09/18 15:40:43;;;;;;;;;;;;;;;22.56;60.33;98605.31;10206478;28;1241;-74
2023/09/18 15:45:40;;;;;;;;;;;;;;;22.26;61.09;98609.44;10207279;28;1969;-75
2023/09/18 15:50:36;;;;;;;;;;;;;;;22.09;61.26;98613.44;10205801;28;903;-74
2023/09/18 15:55:31;;;;;;;;;;;;;;;22.04;61.51;98610.28;10206644;28;926;-74
2023/09/18 16:00:28;;;;;;;;;;;;;;;22.01;61.47;98597.28;10206589;28;905;-73
2023/09/18 16:05:25;;;;;;;;;;;;;;;22.00;61.96;98598.22;10205559;28;1901;-74
2023/09/18 16:10:22;;;;;;;;;;;;;;;21.95;61.79;98595.09;10206038;28;902;-74
2023/09/18 16:15:18;;;;;;;;;;;;;;;21.95;61.78;98591.59;10203214;28;1070;-73
2023/09/18 16:20:14;;;;;;;;;;;;;;;21.92;61.92;98595.34;10205016;28;861;-73
2023/09/18 16:25:10;;;;;;;;;;;;;;;21.89;61.82;98591.13;10205254;28;1956;-73
2023/09/18 16:30:08;;;;;;;;;;;;;;;21.86;61.99;98596.66;10204557;28;964;-75
2023/09/18 16:35:05;;;;;;;;;;;;;;;21.86;62.24;98607.28;10205073;28;876;-72
2023/09/18 16:40:01;;;;;;;;;;;;;;;21.85;62.20;98610.03;10204876;28;1307;-72
2023/09/18 16:44:59;;;;;;;;;;;;;;;21.83;62.01;98612.00;10204240;28;830;-73
2023/09/18 16:49:55;;;;;;;;;;;;;;;21.83;62.20;98612.00;10204811;28;902;-73
2023/09/18 16:54:51;;;;;;;;;;;;;;;21.80;62.16;98622.84;10203871;28;887;-72
2023/09/18 16:59:47;;;;;;;;;;;;;;;21.80;62.22;98609.59;10185222;28;894;-75
2023/09/18 17:04:43;;;;;;;;;;;;;;;21.78;62.30;98606.19;10204496;28;914;-75
2023/09/18 17:09:39;;;;;;;;;;;;;;;21.77;62.27;98617.75;10203785;28;1898;-73
2023/09/18 17:14:35;;;;;;;;;;;;;;;21.75;62.41;98603.78;10204147;28;941;-74
2023/09/18 17:19:31;;;;;;;;;;;;;;;21.75;62.25;98614.41;10204226;28;851;-73
2023/09/18 17:24:27;;;;;;;;;;;;;;;21.74;62.28;98607.38;10204822;28;873;-73
2023/09/18 17:29:22;;;;;;;;;;;;;;;21.73;62.44;98611.00;10203403;28;1902;-73
2023/09/18 17:34:18;;;;;;;;;;;;;;;21.71;62.57;98611.13;10204032;28;851;-73
2023/09/18 17:39:15;;;;;;;;;;;;;;;21.70;62.39;98603.31;10203356;28;1359;-73
2023/09/18 17:44:11;;;;;;;;;;;;;;;21.69;62.58;98609.56;10203107;28;982;-73
2023/09/18 17:49:08;;;;;;;;;;;;;;;21.67;62.39;98597.25;10203687;28;1910;-72
2023/09/18 17:54:05;;;;;;;;;;;;;;;21.68;62.44;98614.00;10204127;28;836;-73
2023/09/18 17:59:01;;;;;;;;;;;;;;;21.67;62.45;98615.00;10203571;28;852;-73
2023/09/18 18:03:57;;;;;;;;;;;;;;;21.66;62.42;98622.06;10203326;28;859;-73
2023/09/18 18:08:53;;;;;;;;;;;;;;;21.65;62.30;98617.75;10202631;28;1898;-72
2023/09/18 18:13:49;;;;;;;;;;;;;;;21.66;62.46;98619.41;10207867;28;786;-79
2023/09/18 18:18:45;;;;;;;;;;;;;;;21.66;62.60;98627.38;10209782;28;948;-73
2023/09/18 18:23:41;;;;;;;;;;;;;;;21.65;62.40;98625.69;10209662;28;767;-71
2023/09/18 18:28:40;;;;;;;;;;;;;;;21.66;62.36;98624.72;10209653;28;1902;-72
2023/09/18 18:33:36;;;;;;;;;;;;;;;21.64;62.52;98634.63;10209984;28;930;-72
2023/09/18 18:38:32;;;;;;;;;;;;;;;21.63;62.20;98622.31;10208721;28;1259;-73
2023/09/18 18:43:27;;;;;;;;;;;;;;;21.64;62.51;98626.69;10208337;28;1802;-71
2023/09/18 18:48:25;;;;;;;;;;;;;;;21.65;62.57;98730.94;10208620;28;1914;-72
2023/09/18 18:53:21;;;;;;;;;;;;;;;21.66;62.50;98737.94;10209085;28;839;-73
2023/09/18 18:58:17;;;;;;;;;;;;;;;21.65;62.56;98798.09;10209017;28;944;-74
2023/09/18 19:03:13;;;;;;;;;;;;;;;21.60;60.04;98797.56;10208013;28;784;-74
2023/09/18 19:08:09;;;;;;;;;;;;;;;21.63;62.08;98781.44;10207892;28;1898;-74
2023/09/18 19:13:05;;;;;;;;;;;;;;;21.53;60.19;98795.50;10207771;28;1182;-73
2023/09/18 19:18:01;;;;;;;;;;;;;;;21.48;60.28;98808.25;10207525;28;782;-73
2023/09/18 19:22:59;;;;;;;;;;;;;;;21.46;61.16;98808.38;10206441;28;879;-73
2023/09/18 19:27:55;;;;;;;;;;;;;;;21.42;61.08;98794.47;10207689;28;1898;-73
2023/09/18 19:32:51;;;;;;;;;;;;;;;21.38;61.18;98798.31;10207108;28;881;-73
2023/09/18 19:37:47;;;;;;;;;;;;;;;21.43;61.29;98803.28;10206642;28;1090;-77
2023/09/18 19:42:43;;;;;;;;;;;;;;;21.44;61.63;98765.22;10205908;28;779;-77
2023/09/18 19:47:39;;;;;;;;;;;;;;;21.48;61.73;98747.25;10206997;28;1918;-77
2023/09/18 19:52:36;;;;;;;;;;;;;;;21.45;61.58;98756.28;10205690;28;1248;-76
2023/09/18 19:57:32;;;;;;;;;;;;;;;21.47;61.64;98761.50;10206144;28;842;-76
2023/09/18 20:02:28;;;;;;;;;;;;;;;21.44;61.72;98750.16;10205983;28;901;-77
2023/09/18 20:07:24;;;;;;;;;;;;;;;21.47;61.67;98751.72;10205771;28;1952;-76
2023/09/18 20:12:20;;;;;;;;;;;;;;;21.45;61.96;98750.97;10205539;28;886;-76
2023/09/18 20:17:16;;;;;;;;;;;;;;;21.44;61.90;98758.09;10205548;28;751;-77
2023/09/18 20:22:12;;;;;;;;;;;;;;;21.43;61.85;98764.38;10205070;28;1555;-76
2023/09/18 20:27:09;;;;;;;;;;;;;;;21.44;61.94;98765.22;10204831;28;1898;-80
2023/09/18 20:32:05;;;;;;;;;;;;;;;21.42;61.92;98767.13;10205097;28;860;-80
2023/09/18 20:37:01;;;;;;;;;;;;;;;21.41;61.95;98765.44;10204707;28;1142;-78
2023/09/18 20:41:56;;;;;;;;;;;;;;;21.43;62.01;98771.44;10204526;28;905;-77
2023/09/18 20:46:52;;;;;;;;;;;;;;;21.39;61.83;98764.72;10204593;28;1996;-82
2023/09/18 20:51:49;;;;;;;;;;;;;;;21.38;61.81;98778.94;10204238;28;850;-80
2023/09/18 20:56:45;;;;;;;;;;;;;;;21.38;61.69;98776.28;10205028;28;826;-80
2023/09/18 21:01:43;;;;;;;;;;;;;;;21.38;61.98;98778.94;10204171;28;939;-80
2023/09/18 21:06:39;;;;;;;;;;;;;;;21.36;62.10;98779.00;10204616;28;1898;-80
2023/09/18 21:11:35;;;;;;;;;;;;;;;21.38;61.97;98778.94;10203914;28;804;-80
2023/09/18 21:16:31;;;;;;;;;;;;;;;21.36;61.89;98779.00;10203727;28;771;-80
2023/09/18 21:21:27;;;;;;;;;;;;;;;21.39;62.10;98785.91;10203734;28;786;-81
2023/09/18 21:26:23;;;;;;;;;;;;;;;21.37;62.12;98798.41;10204310;28;1938;-81
2023/09/18 21:31:20;;;;;;;;;;;;;;;21.38;62.18;98797.50;10202970;28;849;-80
2023/09/18 21:36:16;;;;;;;;;;;;;;;21.32;61.86;98797.88;10203957;28;799;-80
2023/09/18 21:41:16;;;;;;;;;;;;;;;21.33;61.85;98804.91;10203689;28;1411;-78
2023/09/18 21:46:13;;;;;;;;;;;;;;;21.33;62.03;98805.75;10203970;28;1906;-78
2023/09/18 21:51:14;;;;;;;;;;;;;;;21.33;61.91;98816.34;10210666;28;921;-79
2023/09/18 21:56:10;;;;;;;;;;;;;;;21.33;61.93;98831.41;10210733;28;852;-79
2023/09/18 22:01:06;;;;;;;;;;;;;;;21.32;61.82;98819.94;10210623;28;773;-79
2023/09/18 22:06:02;;;;;;;;;;;;;;;21.33;61.98;98826.09;10210884;28;1890;-79
2023/09/18 22:10:58;;;;;;;;;;;;;;;21.31;62.16;98839.47;10210169;28;886;-79
2023/09/18 22:15:54;;;;;;;;;;;;;;;21.32;61.99;98845.59;10210675;28;861;-79
2023/09/18 22:20:50;;;;;;;;;;;;;;;21.28;62.18;98844.97;10209176;28;923;-79
2023/09/18 22:25:46;;;;;;;;;;;;;;;21.31;62.36;98857.16;10209806;28;1957;-79
2023/09/18 22:30:45;;;;;;;;;;;;;;;21.27;62.11;98853.03;10208865;28;1140;-79
2023/09/18 22:35:41;;;;;;;;;;;;;;;21.31;62.34;98851.88;10209213;28;831;-79
2023/09/18 22:40:37;;;;;;;;;;;;;;;21.31;62.44;98858.00;10210154;28;1153;-79
2023/09/18 22:45:33;;;;;;;;;;;;;;;21.28;62.27;98865.34;10209429;28;1910;-80
2023/09/18 22:50:29;;;;;;;;;;;;;;;21.28;62.17;98881.25;10208672;28;834;-79
2023/09/18 22:55:28;;;;;;;;;;;;;;;21.28;62.27;98881.25;10209456;28;807;-79
2023/09/18 23:00:24;;;;;;;;;;;;;;;21.29;62.24;98891.72;10206995;28;883;-79
2023/09/18 23:05:20;;;;;;;;;;;;;;;21.29;62.28;98894.38;10208218;28;1898;-79
2023/09/18 23:10:19;;;;;;;;;;;;;;;21.27;62.21;98884.84;10207931;28;883;-80
2023/09/18 23:15:15;;;;;;;;;;;;;;;21.25;62.19;98892.91;10207804;28;844;-79
2023/09/18 23:20:11;;;;;;;;;;;;;;;21.27;62.17;98900.75;10207904;28;846;-79
2023/09/18 23:25:07;;;;;;;;;;;;;;;21.26;62.25;98894.59;10208159;28;854;-79
2023/09/18 23:30:07;;;;;;;;;;;;;;;21.27;62.52;98900.75;10206566;28;1883;-79
2023/09/18 23:35:15;;;;;;;;;;;;;;;21.27;62.50;98898.09;10206532;28;955;-79
2023/09/18 23:40:13;;;;;;;;;;;;;;;21.23;62.15;98911.56;10207033;28;1233;-79
2023/09/18 23:45:10;;;;;;;;;;;;;;;21.20;62.15;98911.78;10207170;28;967;-79
2023/09/18 23:50:06;;;;;;;;;;;;;;;21.22;61.98;98922.25;10206890;28;1922;-80
2023/09/18 23:55:03;;;;;;;;;;;;;;;21.22;62.05;98928.44;10206342;28;884;-80
